Time;durP1;ratioP1;P1;durP2;ratioP2;P2;SDS_P1;SDS_P2;PMS_P1;PMS_P2;Temp;Humidity;BMP_temperature;BMP_pressure;BME280_temperature;BME280_humidity;BME280_pressure;Samples;Min_cycle;Max_cycle;Signal;HPM_P1;HPM_P2
2021/07/13 00:02:24;;;;;;;11.25;6.88;;;;;;;17.24;88.43;96441.57;127495;1093;25734;-96
2021/07/13 00:04:56;;;;;;;8.53;6.85;;;;;;;17.19;88.63;96442.55;127517;1093;24951;-89
2021/07/13 00:07:27;;;;;;;7.45;6.70;;;;;;;17.19;88.77;96431.84;127402;1093;24881;-91
2021/07/13 00:09:59;;;;;;;9.70;7.73;;;;;;;17.20;89.17;96436.87;127422;1093;25985;-90
2021/07/13 00:16:49;;;;;;;7.98;7.18;;;;;;;17.23;89.57;96426.61;127535;1093;30750;-89
2021/07/13 00:19:21;;;;;;;10.38;7.58;;;;;;;17.17;90.31;96418.77;127409;1093;25703;-92
2021/07/13 00:21:53;;;;;;;10.40;7.45;;;;;;;17.19;90.07;96421.13;127403;1093;27208;-90
2021/07/13 00:24:25;;;;;;;9.15;6.85;;;;;;;17.20;90.20;96410.08;127653;1093;25587;-96
2021/07/13 00:26:56;;;;;;;8.70;7.68;;;;;;;17.25;90.22;96413.67;127463;1093;24864;-89
2021/07/13 00:29:28;;;;;;;10.85;8.70;;;;;;;17.25;90.45;96405.63;127617;1093;25422;-90
2021/07/13 00:31:59;;;;;;;10.83;8.45;;;;;;;17.28;90.49;96405.76;127466;1093;32913;-90
2021/07/13 00:34:30;;;;;;;10.00;8.38;;;;;;;17.31;90.52;96401.64;127445;1093;31367;-90
2021/07/13 00:37:02;;;;;;;11.98;9.23;;;;;;;17.38;90.91;96402.70;127453;1093;24883;-90
2021/07/13 00:39:33;;;;;;;11.75;9.83;;;;;;;17.44;91.04;96397.92;127406;1093;30636;-90
2021/07/13 00:42:12;;;;;;;14.60;11.05;;;;;;;17.43;91.06;96386.41;127505;1093;26593;-96
2021/07/13 00:44:45;;;;;;;12.08;9.68;;;;;;;17.49;91.15;96373.62;127423;1093;27640;-89
2021/07/13 00:47:20;;;;;;;10.80;8.63;;;;;;;17.54;90.94;96375.30;127451;1093;26155;-90
2021/07/13 00:49:52;;;;;;;10.95;8.65;;;;;;;17.53;90.79;96376.42;127651;1093;25253;-92
2021/07/13 00:52:24;;;;;;;12.73;9.40;;;;;;;17.49;90.78;96371.72;127385;1093;29296;-91
2021/07/13 00:54:56;;;;;;;11.83;9.50;;;;;;;17.49;91.06;96365.58;127468;1093;26582;-90
2021/07/13 00:57:28;;;;;;;10.33;8.50;;;;;;;17.45;91.12;96367.32;127420;1093;28354;-90
2021/07/13 00:59:59;;;;;;;10.47;8.83;;;;;;;17.43;91.17;96373.02;127496;1093;38858;-89
2021/07/13 01:02:31;;;;;;;12.03;10.00;;;;;;;17.38;91.16;96359.04;127714;1093;26182;-90
2021/07/13 01:05:07;;;;;;;11.70;9.20;;;;;;;17.29;91.26;96356.41;127394;1093;25444;-94
2021/07/13 01:07:50;;;;;;;10.48;9.03;;;;;;;17.19;91.53;96354.15;127481;1093;26194;-90
2021/07/13 01:10:32;;;;;;;10.50;8.85;;;;;;;17.09;91.81;96347.28;127435;1093;26132;-92
2021/07/13 01:13:12;;;;;;;11.03;8.23;;;;;;;16.93;91.85;96354.32;127391;1093;25409;-90
2021/07/13 01:15:50;;;;;;;9.20;7.23;;;;;;;16.85;92.03;96352.47;127475;1093;26822;-90
2021/07/13 01:18:27;;;;;;;9.23;7.00;;;;;;;16.76;92.07;96351.75;127663;1093;24687;-89
2021/07/13 01:21:28;;;;;;;8.68;6.55;;;;;;;16.72;92.08;96343.56;127575;1093;26540;-89
2021/07/13 01:24:42;;;;;;;8.05;6.48;;;;;;;16.73;92.17;96333.64;127555;1093;55745;-88
2021/07/13 01:27:28;;;;;;;8.03;6.70;;;;;;;16.71;92.21;96346.56;127710;1093;25998;-87
2021/07/13 01:30:06;;;;;;;8.15;6.70;;;;;;;16.63;92.12;96346.27;127545;1093;26665;-89
2021/07/13 01:32:40;;;;;;;9.30;7.38;;;;;;;16.62;92.46;96333.22;127716;1093;24580;-88
2021/07/13 01:35:17;;;;;;;9.10;6.88;;;;;;;16.64;92.50;96333.67;127492;1093;26179;-89
2021/07/13 01:37:54;;;;;;;8.85;7.08;;;;;;;16.65;92.68;96342.48;127525;1093;42228;-90
2021/07/13 01:40:28;;;;;;;8.65;7.25;;;;;;;16.69;92.96;96346.11;127510;1093;26610;-92
2021/07/13 01:43:00;;;;;;;9.35;7.55;;;;;;;16.72;92.84;96332.07;127475;1093;25719;-89
2021/07/13 01:45:32;;;;;;;8.00;6.00;;;;;;;16.75;93.11;96334.09;127400;1093;27283;-92
2021/07/13 01:48:05;;;;;;;9.40;7.83;;;;;;;16.72;93.21;96332.86;127565;1092;25336;-89
2021/07/13 01:50:37;;;;;;;9.85;6.98;;;;;;;16.70;92.76;96335.08;127836;1093;24541;-90
2021/07/13 01:53:11;;;;;;;9.40;7.20;;;;;;;16.64;93.03;96339.03;127776;1093;33067;-88
2021/07/13 01:55:46;;;;;;;7.85;6.68;;;;;;;16.69;93.56;96330.83;127591;1093;26335;-90
2021/07/13 01:58:19;;;;;;;9.60;7.88;;;;;;;16.67;93.06;96337.59;127748;1093;26343;-91
2021/07/13 02:00:52;;;;;;;8.80;7.53;;;;;;;16.69;93.22;96332.73;127457;1093;29378;-92
2021/07/13 02:03:27;;;;;;;9.43;8.15;;;;;;;16.75;93.63;96336.77;127406;1093;28233;-95
2021/07/13 02:06:01;;;;;;;9.53;7.95;;;;;;;16.73;93.52;96341.67;127702;1093;24067;-91
2021/07/13 02:08:35;;;;;;;8.63;7.38;;;;;;;16.72;93.29;96340.89;127607;1093;25985;-88
2021/07/13 02:11:08;;;;;;;11.40;7.55;;;;;;;16.74;93.52;96341.34;127793;1093;25768;-93
2021/07/13 02:13:40;;;;;;;9.63;7.58;;;;;;;16.79;93.68;96337.72;127698;1093;26001;-89
2021/07/13 02:16:12;;;;;;;10.58;7.65;;;;;;;16.76;93.80;96343.72;127434;1093;26754;-89
2021/07/13 02:18:43;;;;;;;10.35;8.40;;;;;;;16.73;93.88;96352.38;127614;1093;25975;-87
2021/07/13 02:21:15;;;;;;;9.85;8.03;;;;;;;16.74;93.83;96361.97;127738;1093;47372;-87
2021/07/13 02:23:48;;;;;;;9.05;7.40;;;;;;;16.80;94.00;96363.38;127518;1093;30711;-89
2021/07/13 02:26:25;;;;;;;8.00;6.90;;;;;;;16.83;93.85;96371.54;127443;1093;29339;-89
2021/07/13 02:29:06;;;;;;;7.90;6.88;;;;;;;16.83;93.76;96370.75;127679;1093;27200;-88
2021/07/13 02:31:41;;;;;;;7.85;6.45;;;;;;;16.80;93.23;96374.09;127708;1093;26251;-89
2021/07/13 02:34:16;;;;;;;8.35;7.03;;;;;;;16.75;93.04;96379.61;127830;1093;28052;-89
2021/07/13 02:36:50;;;;;;;8.63;6.35;;;;;;;16.69;92.88;96372.88;127651;1093;26453;-89
2021/07/13 02:39:24;;;;;;;8.93;6.98;;;;;;;16.68;92.96;96382.80;127647;1093;25977;-89
2021/07/13 02:41:57;;;;;;;8.68;6.93;;;;;;;16.67;92.91;96383.09;127682;1093;26191;-89
2021/07/13 02:44:33;;;;;;;9.40;8.03;;;;;;;16.65;93.01;96386.09;127688;1093;29432;-90
2021/07/13 02:47:08;;;;;;;9.20;8.08;;;;;;;16.58;93.22;96385.80;126117;1092;1852124;-91
2021/07/13 02:49:47;;;;;;;9.18;7.40;;;;;;;16.50;93.45;96395.45;127541;1093;50039;-85
2021/07/13 02:52:22;;;;;;;9.07;7.73;;;;;;;16.42;93.52;96388.23;127589;1093;33546;-88
2021/07/13 02:54:58;;;;;;;11.83;8.08;;;;;;;16.37;94.21;96384.95;127614;1092;27015;-87
2021/07/13 02:57:32;;;;;;;9.45;8.23;;;;;;;16.33;94.21;96384.81;127601;1093;27169;-87
2021/07/13 03:00:09;;;;;;;8.95;7.30;;;;;;;16.32;94.28;96385.90;127625;1093;32535;-88
2021/07/13 03:02:58;;;;;;;8.47;7.33;;;;;;;16.26;94.60;96381.84;127531;1093;82086;-87
2021/07/13 03:05:30;;;;;;;9.58;7.13;;;;;;;16.22;94.65;96383.59;127623;1093;26427;-90
2021/07/13 03:08:03;;;;;;;9.03;7.78;;;;;;;16.19;94.96;96384.23;127322;1093;319457;-89
2021/07/13 03:10:36;;;;;;;9.40;8.00;;;;;;;16.16;95.11;96374.16;127625;1093;42736;-89
2021/07/13 03:13:07;;;;;;;9.43;8.20;;;;;;;16.13;95.51;96375.58;127683;1093;26437;-89
2021/07/13 03:15:39;;;;;;;9.65;8.08;;;;;;;16.16;95.90;96374.16;127658;1093;31412;-89
2021/07/13 03:18:11;;;;;;;11.90;8.93;;;;;;;16.20;96.06;96375.11;127623;1093;25307;-88
2021/07/13 03:20:43;;;;;;;11.23;8.98;;;;;;;16.23;96.17;96371.78;127618;1093;28376;-87
2021/07/13 03:23:16;;;;;;;9.73;8.73;;;;;;;16.25;96.06;96375.70;127542;1091;24693;-89
2021/07/13 03:25:49;;;;;;;9.93;8.05;;;;;;;16.28;96.10;96372.38;127404;1093;46987;-90
2021/07/13 03:28:23;;;;;;;10.78;9.08;;;;;;;16.30;96.27;96372.06;127670;1093;28285;-90
2021/07/13 03:30:55;;;;;;;10.78;8.93;;;;;;;16.30;96.17;96370.17;127663;1093;25442;-90
2021/07/13 03:33:28;;;;;;;10.70;8.68;;;;;;;16.31;96.36;96371.73;127553;1093;29049;-90
2021/07/13 03:36:00;;;;;;;11.03;8.98;;;;;;;16.36;96.07;96368.13;127708;1093;72029;-89
2021/07/13 03:38:32;;;;;;;10.13;7.83;;;;;;;16.40;96.14;96366.36;127591;1093;30342;-89
2021/07/13 03:41:03;;;;;;;11.45;8.35;;;;;;;16.45;96.38;96362.72;127541;1093;27282;-90
2021/07/13 03:43:35;;;;;;;10.13;8.68;;;;;;;16.48;96.61;96360.20;127608;1093;24648;-90
2021/07/13 03:46:06;;;;;;;10.35;8.53;;;;;;;16.53;96.49;96354.66;127645;1093;26810;-89
2021/07/13 03:48:40;;;;;;;10.88;8.38;;;;;;;16.55;96.57;96355.13;127811;1093;26692;-89
2021/07/13 03:51:26;;;;;;;10.78;8.95;;;;;;;16.58;96.86;96354.47;127748;1092;32643;-88
2021/07/13 03:53:57;;;;;;;9.98;8.88;;;;;;;16.65;96.58;96353.20;127646;1093;25885;-89
2021/07/13 03:56:29;;;;;;;11.75;9.10;;;;;;;16.69;96.69;96351.47;127741;1093;27731;-91
2021/07/13 03:59:01;;;;;;;11.23;9.33;;;;;;;16.71;96.65;96347.35;127731;1093;24559;-89
2021/07/13 04:01:32;;;;;;;11.35;9.05;;;;;;;16.72;96.97;96345.45;127570;1093;47912;-88
2021/07/13 04:04:05;;;;;;;10.68;9.38;;;;;;;16.76;96.95;96341.05;127546;1093;28469;-91
2021/07/13 04:06:37;;;;;;;12.15;9.03;;;;;;;16.81;96.74;96341.63;127489;1093;29320;-89
2021/07/13 04:09:10;;;;;;;10.68;8.80;;;;;;;16.86;96.83;96341.43;127491;1093;27593;-89
2021/07/13 04:11:41;;;;;;;11.83;9.70;;;;;;;16.90;96.86;96353.08;127526;1093;85278;-89
2021/07/13 04:14:13;;;;;;;12.18;9.95;;;;;;;16.96;96.56;96359.02;127574;1093;31574;-89
2021/07/13 04:16:44;;;;;;;10.65;9.45;;;;;;;17.04;96.64;96360.88;127568;1093;27887;-89
2021/07/13 04:19:16;;;;;;;10.80;9.30;;;;;;;17.10;96.42;96353.42;127636;1093;28011;-88
2021/07/13 04:21:47;;;;;;;12.50;10.05;;;;;;;17.13;96.35;96344.72;127580;1093;25928;-90
2021/07/13 04:24:19;;;;;;;11.63;9.88;;;;;;;17.15;96.22;96340.60;127661;1093;25270;-89
2021/07/13 04:26:50;;;;;;;12.65;9.28;;;;;;;17.20;96.33;96343.11;127544;1093;24158;-90
2021/07/13 04:29:21;;;;;;;10.33;8.95;;;;;;;17.27;96.36;96342.56;127511;1092;25111;-88
2021/07/13 04:31:53;;;;;;;11.63;8.30;;;;;;;17.36;96.13;96339.83;127555;1093;25715;-89
2021/07/13 04:34:24;;;;;;;10.50;8.45;;;;;;;17.50;96.09;96351.84;127483;1093;24270;-90
2021/07/13 04:36:56;;;;;;;10.85;9.48;;;;;;;17.62;95.75;96348.44;127679;1093;26511;-89
2021/07/13 04:39:27;;;;;;;12.88;10.33;;;;;;;17.67;95.13;96353.58;127582;1093;24799;-88
2021/07/13 04:41:58;;;;;;;11.60;9.63;;;;;;;17.77;95.10;96352.42;127434;1093;35353;-92
2021/07/13 04:44:30;;;;;;;11.80;9.68;;;;;;;17.89;94.81;96349.00;127466;1093;26861;-91
2021/07/13 04:47:01;;;;;;;12.15;9.23;;;;;;;17.93;94.43;96356.05;127573;1093;24810;-90
2021/07/13 04:49:33;;;;;;;11.83;10.23;;;;;;;17.90;94.07;96350.57;127550;1093;26894;-89
2021/07/13 04:52:05;;;;;;;11.65;9.65;;;;;;;17.95;94.13;96350.34;127537;1093;26264;-89
2021/07/13 04:54:36;;;;;;;12.00;9.40;;;;;;;18.00;94.22;96347.44;127642;1093;30636;-90
2021/07/13 04:57:08;;;;;;;11.95;10.23;;;;;;;17.97;93.77;96343.53;127615;1092;24509;-93
2021/07/13 04:59:39;;;;;;;10.55;9.23;;;;;;;17.98;94.02;96347.00;127483;1093;26991;-89
2021/07/13 05:02:11;;;;;;;9.75;8.75;;;;;;;18.05;94.04;96341.88;127403;1093;25014;-90
2021/07/13 05:04:42;;;;;;;10.43;8.83;;;;;;;18.20;93.99;96346.61;127403;1093;31141;-90
2021/07/13 05:07:14;;;;;;;9.93;8.78;;;;;;;18.34;93.22;96346.28;127514;1093;24260;-89
2021/07/13 05:09:45;;;;;;;10.00;7.88;;;;;;;18.55;93.40;96346.95;127503;1093;27949;-90
2021/07/13 05:12:17;;;;;;;9.83;8.63;;;;;;;18.78;92.45;96336.58;127469;1093;26659;-89
2021/07/13 05:14:48;;;;;;;9.18;7.70;;;;;;;19.11;91.80;96341.00;127488;1093;24985;-92
2021/07/13 05:17:20;;;;;;;8.38;7.40;;;;;;;20.44;91.48;96328.88;127424;1093;24481;-89
2021/07/13 05:19:51;;;;;;;8.53;6.60;;;;;;;23.03;92.22;96337.70;127389;1093;29513;-91
2021/07/13 05:22:22;;;;;;;7.28;6.35;;;;;;;25.40;87.42;96332.23;127442;1093;24570;-91
2021/07/13 05:24:54;;;;;;;8.95;7.08;;;;;;;27.50;81.67;96342.50;127443;1093;24395;-90
2021/07/13 05:27:26;;;;;;;6.73;6.03;;;;;;;28.94;75.71;96333.83;127403;1092;26500;-91
2021/07/13 05:29:58;;;;;;;6.83;5.53;;;;;;;29.92;71.82;96337.03;127422;1093;24985;-89
2021/07/13 05:32:29;;;;;;;5.45;4.95;;;;;;;30.98;68.29;96329.17;127420;1093;26218;-90
2021/07/13 05:35:00;;;;;;;5.33;4.83;;;;;;;31.73;64.88;96339.50;127412;1093;25695;-94
2021/07/13 05:37:33;;;;;;;5.00;4.50;;;;;;;32.73;63.17;96343.52;127457;1093;28230;-92
2021/07/13 05:40:07;;;;;;;5.18;4.73;;;;;;;33.62;59.52;96330.20;127504;1093;36232;-89
2021/07/13 05:42:39;;;;;;;5.80;4.48;;;;;;;34.30;57.98;96335.69;127576;1093;29024;-89
2021/07/13 05:45:13;;;;;;;5.08;4.55;;;;;;;34.80;55.01;96332.14;127499;1093;28475;-90
2021/07/13 05:47:44;;;;;;;5.10;4.60;;;;;;;34.80;52.29;96332.14;127512;1093;27455;-91
2021/07/13 05:50:16;;;;;;;5.08;4.38;;;;;;;34.97;51.25;96324.52;127452;1093;23932;-90
2021/07/13 05:52:48;;;;;;;4.33;4.00;;;;;;;34.91;49.48;96337.30;127467;1093;26258;-90
2021/07/13 05:55:19;;;;;;;4.43;4.03;;;;;;;35.37;48.98;96335.73;127551;1093;31552;-90
2021/07/13 05:57:51;;;;;;;4.13;3.73;;;;;;;35.55;47.48;96324.06;127553;1092;30254;-91
2021/07/13 06:00:23;;;;;;;4.65;4.05;;;;;;;35.84;46.55;96324.53;127499;1093;27017;-91
2021/07/13 06:02:54;;;;;;;4.90;4.20;;;;;;;36.04;45.25;96315.17;127404;1093;29648;-96
2021/07/13 06:05:25;;;;;;;4.55;3.90;;;;;;;36.49;43.79;96329.16;127501;1092;24359;-91
2021/07/13 06:07:57;;;;;;;4.50;4.10;;;;;;;36.59;43.89;96324.41;127571;1093;27217;-91
2021/07/13 06:10:29;;;;;;;4.93;4.50;;;;;;;37.03;43.26;96319.45;127569;1093;25379;-91
2021/07/13 06:13:00;;;;;;;4.98;4.48;;;;;;;36.96;41.19;96330.80;127567;1093;24899;-91
2021/07/13 06:15:32;;;;;;;5.10;4.70;;;;;;;36.13;40.24;96329.77;127571;1092;27389;-91
2021/07/13 06:18:04;;;;;;;4.70;4.38;;;;;;;35.40;40.25;96337.59;127592;1093;26461;-91
2021/07/13 06:20:35;;;;;;;4.60;4.30;;;;;;;34.75;39.34;96340.95;127527;1093;49037;-91
2021/07/13 06:23:07;;;;;;;4.85;4.40;;;;;;;34.58;40.81;96343.08;127647;1093;26265;-91
2021/07/13 06:25:39;;;;;;;5.18;4.68;;;;;;;35.66;41.04;96338.23;127558;1093;29004;-91
2021/07/13 06:28:11;;;;;;;4.88;4.48;;;;;;;36.97;41.56;96346.15;127500;1093;25447;-91
2021/07/13 06:30:42;;;;;;;5.00;4.43;;;;;;;38.27;40.20;96349.09;127492;1093;24449;-88
2021/07/13 06:33:14;;;;;;;4.18;3.88;;;;;;;39.49;39.71;96349.44;127506;1093;24897;-92
2021/07/13 06:35:47;;;;;;;4.20;3.90;;;;;;;40.77;37.61;96338.91;127396;1093;25054;-92
2021/07/13 06:38:19;;;;;;;4.30;4.00;;;;;;;41.08;34.84;96338.31;127406;1093;26578;-93
2021/07/13 06:40:51;;;;;;;4.48;4.08;;;;;;;41.17;36.19;96341.72;127434;1093;26057;-96
2021/07/13 06:43:22;;;;;;;4.50;4.10;;;;;;;41.79;34.48;96339.61;127665;1093;26572;-90
2021/07/13 06:45:54;;;;;;;5.10;4.23;;;;;;;42.25;33.03;96341.55;127666;1092;26992;-90
2021/07/13 06:48:25;;;;;;;4.50;4.13;;;;;;;42.56;33.52;96337.97;127651;1093;28835;-91
2021/07/13 06:50:58;;;;;;;4.45;3.75;;;;;;;43.10;33.40;96340.80;127727;1093;26826;-91
2021/07/13 06:53:29;;;;;;;4.45;4.05;;;;;;;43.06;32.55;96334.67;127646;1093;25692;-91
2021/07/13 06:56:01;;;;;;;4.30;4.00;;;;;;;43.63;31.80;96333.58;127669;1093;26407;-91
2021/07/13 06:58:32;;;;;;;3.93;3.63;;;;;;;43.82;30.55;96329.83;127605;1092;33880;-92
2021/07/13 07:01:03;;;;;;;4.15;3.85;;;;;;;43.46;30.06;96330.77;127579;1093;26845;-92
2021/07/13 07:03:35;;;;;;;4.80;4.40;;;;;;;42.91;29.62;96329.29;127525;1093;83390;-92
2021/07/13 07:06:06;;;;;;;4.95;4.23;;;;;;;42.60;30.63;96330.89;127663;1093;24614;-93
2021/07/13 07:08:38;;;;;;;4.48;4.08;;;;;;;43.69;30.44;96335.13;127647;1093;24294;-91
2021/07/13 07:11:10;;;;;;;4.50;4.10;;;;;;;44.37;29.82;96324.75;127620;1093;27483;-92
2021/07/13 07:13:42;;;;;;;4.15;3.75;;;;;;;45.38;30.04;96325.20;127527;1093;25789;-91
2021/07/13 07:16:14;;;;;;;4.15;3.78;;;;;;;46.64;29.67;96328.04;127882;1093;34254;-89
2021/07/13 07:18:45;;;;;;;5.05;4.25;;;;;;;47.42;28.36;96331.95;128195;1093;35803;-90
2021/07/13 07:21:17;;;;;;;6.13;4.20;;;;;;;48.08;27.53;96323.83;128095;1093;33700;-92
2021/07/13 07:23:48;;;;;;;5.03;4.63;;;;;;;48.56;26.80;96321.95;127575;1093;35775;-92
2021/07/13 07:26:20;;;;;;;4.75;4.33;;;;;;;49.11;26.13;96314.48;127712;1093;30471;-94
2021/07/13 07:28:51;;;;;;;4.80;4.40;;;;;;;49.28;26.03;96322.59;127596;1093;29913;-93
2021/07/13 07:31:23;;;;;;;5.78;4.60;;;;;;;48.42;24.57;96318.38;127595;1093;30160;-92
2021/07/13 07:33:55;;;;;;;8.23;4.30;;;;;;;48.34;25.50;96309.08;127567;1093;31041;-93
2021/07/13 07:36:27;;;;;;;5.73;4.00;;;;;;;49.02;25.11;96310.08;127533;1093;46439;-92
2021/07/13 07:38:59;;;;;;;4.13;3.83;;;;;;;49.54;24.17;96305.60;127521;1093;48690;-92
2021/07/13 07:41:30;;;;;;;4.55;4.15;;;;;;;49.64;23.59;96303.83;127531;1093;29469;-93
2021/07/13 07:44:02;;;;;;;4.00;3.70;;;;;;;50.33;23.79;96306.53;127544;1093;30337;-93
2021/07/13 07:46:34;;;;;;;4.40;4.10;;;;;;;50.91;22.92;96305.97;127532;1093;36592;-93
2021/07/13 07:49:06;;;;;;;4.45;4.15;;;;;;;51.25;22.54;96302.19;127668;1092;30141;-94
2021/07/13 07:51:37;;;;;;;6.88;4.60;;;;;;;50.06;21.87;96297.49;127592;1093;26806;-92
2021/07/13 07:54:11;;;;;;;4.58;4.18;;;;;;;47.92;21.24;96291.89;127599;1093;26388;-96
2021/07/13 07:56:42;;;;;;;5.05;4.48;;;;;;;46.81;22.89;96299.81;127616;1093;30075;-91
2021/07/13 07:59:14;;;;;;;4.78;4.43;;;;;;;47.60;23.87;96295.45;127573;1092;27786;-91
2021/07/13 08:01:46;;;;;;;4.30;4.00;;;;;;;48.86;22.28;96296.34;127578;1093;39701;-92
2021/07/13 08:04:18;;;;;;;4.70;4.40;;;;;;;49.20;22.64;96297.15;127605;1093;31272;-93
2021/07/13 08:06:50;;;;;;;5.40;5.00;;;;;;;48.75;20.11;96300.89;127638;1093;31012;-93
2021/07/13 08:09:22;;;;;;;4.95;4.45;;;;;;;47.40;22.95;96303.64;127668;1093;26012;-96
2021/07/13 08:11:54;;;;;;;4.50;4.20;;;;;;;48.73;23.11;96300.67;127602;1093;27403;-93
2021/07/13 08:14:26;;;;;;;4.90;4.50;;;;;;;49.16;21.73;96298.80;127628;1093;28550;-95
2021/07/13 08:16:58;;;;;;;5.33;4.93;;;;;;;48.11;20.55;96312.25;127583;1093;32934;-92
2021/07/13 08:19:30;;;;;;;4.85;4.50;;;;;;;47.62;23.36;96302.59;127817;1093;24687;-95
2021/07/13 08:22:01;;;;;;;6.90;5.00;;;;;;;48.81;22.79;96305.64;127610;1093;27797;-91
2021/07/13 08:24:33;;;;;;;6.55;5.08;;;;;;;48.99;21.88;96307.58;127596;1093;23694;-94
2021/07/13 08:27:05;;;;;;;5.33;4.83;;;;;;;47.94;22.04;96313.84;127636;1093;26733;-91
2021/07/13 08:29:38;;;;;;;6.10;5.05;;;;;;;48.17;23.12;96309.36;127717;1092;27468;-95
2021/07/13 08:32:10;;;;;;;6.03;5.43;;;;;;;47.31;22.48;96310.42;127645;1093;27379;-93
2021/07/13 08:34:41;;;;;;;6.03;4.75;;;;;;;47.54;23.21;96314.43;127578;1093;25995;-91
2021/07/13 08:37:13;;;;;;;8.60;6.15;;;;;;;47.58;21.96;96314.90;127613;1093;26408;-90
2021/07/13 08:39:45;;;;;;;5.80;4.93;;;;;;;46.67;23.57;96307.34;127592;1093;27200;-91
2021/07/13 08:42:17;;;;;;;6.20;5.13;;;;;;;46.94;23.66;96302.71;127571;1093;28300;-91
2021/07/13 08:44:49;;;;;;;5.88;5.28;;;;;;;47.17;23.43;96306.02;127630;1093;25272;-92
2021/07/13 08:47:21;;;;;;;6.73;5.00;;;;;;;46.07;21.73;96313.03;127659;1093;31468;-91
2021/07/13 08:49:54;;;;;;;6.68;5.65;;;;;;;41.42;22.70;96312.43;127641;1093;31495;-90
2021/07/13 08:52:26;;;;;;;6.40;5.45;;;;;;;37.86;26.25;96308.31;127713;1094;28030;-91
2021/07/13 08:54:59;;;;;;;7.43;6.15;;;;;;;35.63;29.38;96297.77;127710;1093;28274;-91
2021/07/13 08:57:31;;;;;;;8.00;6.20;;;;;;;34.28;32.37;96305.86;127646;1093;28062;-90
2021/07/13 09:00:05;;;;;;;6.18;5.60;;;;;;;34.26;33.75;96294.53;127585;1093;30420;-92
2021/07/13 09:02:37;;;;;;;7.78;6.50;;;;;;;34.31;34.33;96296.72;127677;1093;27947;-93
2021/07/13 09:05:20;;;;;;;6.45;5.73;;;;;;;34.16;34.83;96304.66;127629;1091;30893;-95
2021/07/13 09:07:53;;;;;;;7.38;6.10;;;;;;;34.05;34.94;96298.70;127604;1093;29375;-95
2021/07/13 09:10:25;;;;;;;8.13;6.43;;;;;;;33.85;35.25;96295.38;127613;1093;26036;-92
2021/07/13 09:12:57;;;;;;;8.33;6.57;;;;;;;33.32;35.40;96290.19;127633;1093;29084;-90
2021/07/13 09:15:29;;;;;;;7.00;6.30;;;;;;;32.88;36.42;96299.25;127710;1093;25468;-90
2021/07/13 09:18:01;;;;;;;7.50;6.73;;;;;;;32.30;36.77;96291.64;127726;1092;45964;-91
2021/07/13 09:20:34;;;;;;;10.88;7.53;;;;;;;31.84;38.33;96295.42;127655;1093;31527;-90
2021/07/13 09:23:08;;;;;;;9.33;6.75;;;;;;;31.78;38.21;96297.88;127668;1092;27457;-90
2021/07/13 09:25:43;;;;;;;8.55;7.35;;;;;;;31.00;38.80;96302.14;127720;1093;54433;-91
2021/07/13 09:28:19;;;;;;;7.58;6.75;;;;;;;30.41;40.96;96298.05;127547;1093;30366;-91
2021/07/13 09:30:52;;;;;;;6.85;6.15;;;;;;;30.60;41.24;96293.82;127534;1093;28915;-93
2021/07/13 09:33:26;;;;;;;8.13;7.23;;;;;;;30.53;41.37;96296.66;127535;1093;29261;-92
2021/07/13 09:36:03;;;;;;;8.43;7.53;;;;;;;30.30;41.41;96293.93;127424;1093;24723;-93
2021/07/13 09:38:37;;;;;;;7.28;6.55;;;;;;;30.55;42.41;96291.57;127539;1093;28651;-92
2021/07/13 09:41:15;;;;;;;7.93;7.00;;;;;;;30.82;42.25;96293.46;127493;1093;24932;-92
2021/07/13 09:43:50;;;;;;;8.68;7.75;;;;;;;30.98;43.19;96296.32;127558;1092;24442;-94
2021/07/13 09:46:37;;;;;;;7.80;7.10;;;;;;;31.06;43.24;96292.23;127566;1093;26929;-94
2021/07/13 09:49:29;;;;;;;8.10;7.30;;;;;;;31.00;43.31;96296.67;127565;1093;27928;-90
2021/07/13 09:52:03;;;;;;;10.93;7.83;;;;;;;30.99;43.27;96292.39;127549;1092;26506;-96
2021/07/13 09:54:38;;;;;;;8.40;7.50;;;;;;;30.75;43.92;96288.13;127642;1093;25761;-91
2021/07/13 09:57:15;;;;;;;8.93;7.37;;;;;;;30.72;44.27;96285.05;127751;1093;33927;-92
2021/07/13 09:59:49;;;;;;;8.43;7.20;;;;;;;30.76;44.08;96289.67;127586;1093;28490;-93
2021/07/13 10:02:23;;;;;;;7.45;6.65;;;;;;;30.74;44.42;96290.09;127561;1093;24956;-88
2021/07/13 10:04:57;;;;;;;8.15;7.33;;;;;;;30.53;44.56;96287.68;127447;1092;24724;-93
2021/07/13 10:07:31;;;;;;;8.45;7.55;;;;;;;30.25;44.66;96286.95;127481;1093;24855;-93
2021/07/13 10:10:05;;;;;;;10.83;8.23;;;;;;;30.02;46.54;96295.88;127492;1093;25121;-95
2021/07/13 10:12:37;;;;;;;8.53;7.45;;;;;;;30.14;46.41;96289.88;127602;1093;26553;-91
2021/07/13 10:15:11;;;;;;;8.68;7.78;;;;;;;30.09;46.24;96290.32;127633;1093;29708;-91
2021/07/13 10:17:45;;;;;;;8.98;8.08;;;;;;;29.80;46.55;96280.95;127573;1093;35131;-91
2021/07/13 10:20:22;;;;;;;10.83;8.40;;;;;;;29.77;47.74;96287.25;127575;1093;31454;-93
2021/07/13 10:22:57;;;;;;;8.68;7.73;;;;;;;29.63;46.42;96287.45;127595;1093;24767;-93
2021/07/13 10:25:40;;;;;;;12.70;8.30;;;;;;;29.50;47.44;96290.72;127498;1093;29937;-92
2021/07/13 10:28:13;;;;;;;8.93;7.73;;;;;;;29.74;47.29;96282.62;127568;1093;25868;-90
2021/07/13 10:30:46;;;;;;;8.93;7.50;;;;;;;29.98;47.47;96286.97;127614;1093;26543;-90
2021/07/13 10:33:35;;;;;;;9.00;7.90;;;;;;;30.10;46.75;96282.89;127567;1093;25762;-93
2021/07/13 10:36:41;;;;;;;9.40;8.00;;;;;;;29.49;47.39;96283.71;127617;1093;26011;-92
2021/07/13 10:39:30;;;;;;;8.98;8.08;;;;;;;29.60;48.47;96286.31;127583;1092;25376;-91
2021/07/13 10:42:03;;;;;;;8.80;7.90;;;;;;;29.74;47.92;96285.34;127546;1093;25098;-91
2021/07/13 10:44:46;;;;;;;8.50;7.45;;;;;;;29.49;47.96;96282.94;127511;1093;32455;-92
2021/07/13 10:47:30;;;;;;;10.68;8.23;;;;;;;29.37;48.39;96281.48;127542;1093;27872;-91
2021/07/13 10:50:38;;;;;;;9.10;7.98;;;;;;;29.47;48.91;96275.16;127726;1092;26418;-90
2021/07/13 10:53:15;;;;;;;9.10;8.17;;;;;;;29.67;49.39;96278.01;127644;1093;24871;-90
2021/07/13 10:55:49;;;;;;;8.90;7.98;;;;;;;29.79;49.38;96268.48;127842;1093;24023;-90
2021/07/13 10:58:44;;;;;;;8.88;7.98;;;;;;;29.82;48.55;96265.69;127523;1093;25994;-90
2021/07/13 11:01:21;;;;;;;9.55;8.55;;;;;;;29.63;47.89;96268.32;127504;1093;26272;-92
2021/07/13 11:04:12;;;;;;;9.47;8.57;;;;;;;29.58;49.15;96260.59;127473;1093;24743;-90
2021/07/13 11:06:56;;;;;;;9.65;8.75;;;;;;;29.63;48.76;96260.89;127613;1093;24924;-90
2021/07/13 11:09:38;;;;;;;9.70;8.70;;;;;;;29.41;49.18;96256.86;127582;1092;29073;-91
2021/07/13 11:12:19;;;;;;;9.67;8.67;;;;;;;29.20;49.82;96257.91;127608;1093;25593;-90
2021/07/13 11:15:01;;;;;;;10.43;8.13;;;;;;;29.04;49.38;96252.25;127535;1093;37928;-89
2021/07/13 11:17:34;;;;;;;9.48;8.58;;;;;;;28.95;50.04;96256.23;127490;1093;28841;-90
2021/07/13 11:20:14;;;;;;;9.93;8.10;;;;;;;28.99;50.44;96250.72;127464;1092;29547;-92
2021/07/13 11:22:47;;;;;;;9.63;8.43;;;;;;;28.88;49.09;96253.59;127518;1093;27327;-91
2021/07/13 11:25:30;;;;;;;10.28;9.28;;;;;;;28.84;49.85;96241.89;127543;1093;30676;-89
2021/07/13 11:28:12;;;;;;;11.38;9.20;;;;;;;28.98;50.38;96243.72;127569;1092;26938;-90
2021/07/13 11:30:50;;;;;;;9.45;8.40;;;;;;;29.16;50.09;96240.80;127567;1093;29291;-89
2021/07/13 11:33:28;;;;;;;9.95;8.95;;;;;;;29.07;49.35;96235.83;127554;1093;27415;-90
2021/07/13 11:36:03;;;;;;;9.83;8.83;;;;;;;28.98;50.15;96243.72;127546;1093;28199;-90
2021/07/13 11:38:36;;;;;;;9.98;8.93;;;;;;;29.11;50.98;96233.05;127599;1093;26271;-91
2021/07/13 11:41:13;;;;;;;9.65;8.58;;;;;;;29.22;50.63;96237.20;127675;1093;24831;-90
2021/07/13 11:43:45;;;;;;;8.40;7.55;;;;;;;29.19;50.29;96237.25;127561;1093;28478;-88
2021/07/13 11:46:19;;;;;;;9.65;8.65;;;;;;;29.10;50.74;96231.50;127551;1093;28738;-91
2021/07/13 11:48:59;;;;;;;11.48;8.60;;;;;;;29.16;51.61;96227.16;127600;1093;32531;-90
2021/07/13 11:51:34;;;;;;;10.50;8.60;;;;;;;29.26;50.68;96226.23;127524;1092;32739;-90
2021/07/13 11:54:09;;;;;;;9.58;7.83;;;;;;;29.33;51.21;96220.69;127513;1093;28570;-89
2021/07/13 11:56:44;;;;;;;10.78;8.43;;;;;;;29.40;50.90;96228.77;127536;1093;50506;-92
2021/07/13 11:59:18;;;;;;;9.20;8.25;;;;;;;29.44;50.53;96217.83;127492;1093;30139;-92